Time;durP1;ratioP1;P1;durP2;ratioP2;P2;SDS_P1;SDS_P2;PMS_P1;PMS_P2;Temp;Humidity;BMP_temperature;BMP_pressure;BME280_temperature;BME280_humidity;BME280_pressure;Samples;Min_cycle;Max_cycle;Signal;HPM_P1;HPM_P2
2022/04/04 00:00:11;;;;;;;4.32;2.97;;;2.60;99.90;;;;;;6290409;22;20003;-90
2022/04/04 00:02:37;;;;;;;4.70;3.40;;;2.50;99.90;;;;;;6287529;22;20022;-90
2022/04/04 00:05:04;;;;;;;4.78;3.03;;;2.60;99.90;;;;;;6285660;22;20014;-90
2022/04/04 00:07:30;;;;;;;4.40;2.97;;;2.50;99.90;;;;;;6286311;22;20003;-90
2022/04/04 00:09:56;;;;;;;5.82;3.40;;;2.60;99.90;;;;;;6287968;22;20025;-91
2022/04/04 00:12:22;;;;;;;6.00;3.22;;;2.60;99.90;;;;;;6286786;22;20057;-90
2022/04/04 00:14:49;;;;;;;5.15;3.40;;;2.60;99.90;;;;;;6287932;22;20007;-90
2022/04/04 00:17:14;;;;;;;4.32;2.92;;;2.60;99.90;;;;;;6286133;22;20110;-90
2022/04/04 00:19:40;;;;;;;4.40;2.95;;;2.50;99.90;;;;;;6287413;22;19995;-91
2022/04/04 00:22:06;;;;;;;5.30;3.50;;;2.50;99.90;;;;;;6286313;22;20430;-90
2022/04/04 00:24:36;;;;;;;5.43;3.72;;;2.50;99.90;;;;;;6285632;22;19999;-90
2022/04/04 00:27:01;;;;;;;4.53;3.15;;;2.50;99.90;;;;;;6285528;22;20007;-91
2022/04/04 00:29:27;;;;;;;4.65;3.10;;;2.50;99.90;;;;;;6284530;22;20103;-91
2022/04/04 00:31:53;;;;;;;6.80;3.70;;;2.40;99.90;;;;;;6284882;22;20070;-91
2022/04/04 00:34:19;;;;;;;5.40;3.33;;;2.40;99.90;;;;;;6284260;22;20455;-92
2022/04/04 00:36:45;;;;;;;5.65;3.15;;;2.40;99.90;;;;;;6284921;22;20007;-90
2022/04/04 00:39:11;;;;;;;6.80;4.10;;;2.40;99.90;;;;;;6284898;22;20003;-89
2022/04/04 00:41:38;;;;;;;6.70;4.15;;;2.40;99.90;;;;;;6285121;22;20011;-90
2022/04/04 00:44:05;;;;;;;7.85;4.97;;;2.40;99.90;;;;;;6285937;22;20326;-90
2022/04/04 00:46:31;;;;;;;7.00;4.70;;;2.40;99.90;;;;;;6285026;22;20333;-88
2022/04/04 00:48:57;;;;;;;8.93;4.95;;;2.40;99.90;;;;;;6290093;22;19999;-91
2022/04/04 00:51:22;;;;;;;7.60;5.07;;;2.40;99.90;;;;;;6264443;22;20021;-90
2022/04/04 00:53:48;;;;;;;7.97;4.60;;;2.40;99.90;;;;;;6285519;22;19999;-90
2022/04/04 00:56:14;;;;;;;6.18;4.32;;;2.40;99.90;;;;;;6288205;22;20007;-88
2022/04/04 00:58:40;;;;;;;9.80;5.32;;;2.40;99.90;;;;;;6291451;22;19999;-89
2022/04/04 01:01:06;;;;;;;8.98;5.15;;;2.40;99.90;;;;;;6286418;22;20330;-91
2022/04/04 01:03:32;;;;;;;12.20;5.38;;;2.40;99.90;;;;;;6283495;22;20058;-89
2022/04/04 01:05:59;;;;;;;8.13;5.20;;;2.40;99.90;;;;;;6283983;22;20031;-90
2022/04/04 01:08:25;;;;;;;8.45;5.55;;;2.40;99.90;;;;;;6311535;22;20010;-90
2022/04/04 01:10:51;;;;;;;8.45;5.07;;;2.30;99.90;;;;;;6283629;22;20086;-89
2022/04/04 01:13:17;;;;;;;5.97;4.60;;;2.30;99.90;;;;;;6311409;22;19999;-89
2022/04/04 01:15:43;;;;;;;8.05;5.13;;;2.40;99.90;;;;;;6284573;22;20078;-89
2022/04/04 01:18:09;;;;;;;10.35;5.30;;;2.30;99.90;;;;;;6284300;22;20061;-89
2022/04/04 01:20:38;;;;;;;7.22;5.13;;;2.30;99.90;;;;;;6311966;22;20072;-91
2022/04/04 01:23:05;;;;;;;9.38;5.93;;;2.30;99.90;;;;;;6284324;22;20345;-91
2022/04/04 01:25:35;;;;;;;8.15;5.57;;;2.30;99.90;;;;;;6284285;22;20418;-89
2022/04/04 01:28:02;;;;;;;9.65;5.82;;;2.30;99.90;;;;;;6284886;22;20063;-90
2022/04/04 01:30:31;;;;;;;7.05;5.03;;;2.40;99.90;;;;;;6290627;22;20544;-88
2022/04/04 01:32:57;;;;;;;10.85;5.88;;;2.40;99.90;;;;;;6270209;22;20011;-87
2022/04/04 01:35:23;;;;;;;8.02;4.88;;;2.40;99.90;;;;;;6321770;22;20034;-90
2022/04/04 01:38:04;;;;;;;8.13;5.70;;;2.40;99.90;;;;;;6269213;22;20015;-88
2022/04/04 01:40:30;;;;;;;9.20;5.47;;;2.40;99.90;;;;;;6297826;22;20010;-87
2022/04/04 01:42:56;;;;;;;11.55;5.85;;;2.40;99.90;;;;;;6300870;22;20011;-87
2022/04/04 01:48:15;;;;;;;8.40;5.63;;;2.40;99.90;;;;;;6327885;22;20086;-87
2022/04/04 01:50:42;;;;;;;8.32;5.40;;;2.50;99.90;;;;;;6301032;22;20003;-89
2022/04/04 01:53:26;;;;;;;9.60;6.20;;;2.50;99.90;;;;;;6275106;22;20000;-91
2022/04/04 01:55:58;;;;;;;10.10;6.03;;;2.60;99.90;;;;;;6301166;22;19999;-89
2022/04/04 01:58:25;;;;;;;10.82;6.43;;;2.60;99.90;;;;;;6278466;22;20060;-88
2022/04/04 02:00:53;;;;;;;8.25;5.95;;;2.50;99.90;;;;;;6300416;22;19999;-87
2022/04/04 02:03:19;;;;;;;8.25;5.80;;;2.50;99.90;;;;;;6291028;22;20014;-91
2022/04/04 02:05:45;;;;;;;8.82;6.30;;;2.60;99.90;;;;;;6289204;22;20008;-91
2022/04/04 02:08:11;;;;;;;11.35;6.47;;;2.60;99.90;;;;;;6317873;22;19999;-87
2022/04/04 02:10:37;;;;;;;8.25;6.65;;;2.60;99.90;;;;;;6265004;22;20170;-91
2022/04/04 02:13:02;;;;;;;9.35;6.25;;;2.60;99.90;;;;;;6287055;22;19995;-92
2022/04/04 02:15:28;;;;;;;8.93;6.30;;;2.60;99.90;;;;;;6286506;22;20093;-90
2022/04/04 02:17:54;;;;;;;9.98;6.95;;;2.60;99.90;;;;;;6320521;22;20003;-88
2022/04/04 02:20:20;;;;;;;8.73;6.43;;;2.60;99.90;;;;;;6295091;22;20003;-89
2022/04/04 02:22:45;;;;;;;10.40;6.65;;;2.70;99.90;;;;;;6298243;22;20010;-88
2022/04/04 02:25:12;;;;;;;9.43;6.78;;;2.70;99.90;;;;;;6326798;22;20025;-88
2022/04/04 02:27:42;;;;;;;8.77;6.40;;;2.70;99.90;;;;;;6296742;22;20003;-89
2022/04/04 02:30:19;;;;;;;9.25;6.75;;;2.70;99.90;;;;;;6306196;22;20059;-88
2022/04/04 02:32:44;;;;;;;9.90;6.75;;;2.70;99.90;;;;;;6306920;22;19993;-89
2022/04/04 02:35:15;;;;;;;10.75;6.60;;;2.70;99.90;;;;;;6333074;22;20011;-92
2022/04/04 02:37:43;;;;;;;12.52;7.80;;;2.70;99.90;;;;;;6325697;22;20050;-86
2022/04/04 02:40:09;;;;;;;9.82;7.05;;;2.70;99.90;;;;;;6296704;22;20086;-88
2022/04/04 02:42:37;;;;;;;9.20;6.90;;;2.80;99.90;;;;;;6296949;22;20015;-87
2022/04/04 02:45:03;;;;;;;9.80;8.23;;;2.80;99.90;;;;;;6291774;22;20008;-90
2022/04/04 02:47:28;;;;;;;10.40;8.23;;;2.70;99.90;;;;;;6289986;22;20027;-90
2022/04/04 02:49:54;;;;;;;9.60;8.02;;;2.80;99.90;;;;;;6288908;22;20002;-90
2022/04/04 02:52:20;;;;;;;11.57;8.63;;;2.80;99.90;;;;;;6287344;22;20000;-92
2022/04/04 02:54:45;;;;;;;11.43;8.93;;;2.80;99.90;;;;;;6287957;22;20023;-91
2022/04/04 02:57:12;;;;;;;11.55;8.32;;;2.80;99.90;;;;;;6283752;22;20003;-90
2022/04/04 02:59:37;;;;;;;12.98;9.05;;;2.80;99.90;;;;;;6284118;22;20090;-91
2022/04/04 03:02:04;;;;;;;9.77;8.52;;;2.80;99.90;;;;;;6284104;22;20034;-91
2022/04/04 03:04:30;;;;;;;12.32;10.02;;;2.90;99.90;;;;;;6311345;22;20310;-90
2022/04/04 03:06:56;;;;;;;11.45;9.15;;;2.90;99.90;;;;;;6310732;22;20003;-91
2022/04/04 03:09:22;;;;;;;11.32;9.30;;;2.90;99.90;;;;;;6283396;22;20080;-88
2022/04/04 03:11:47;;;;;;;13.18;9.07;;;3.00;99.90;;;;;;6283572;22;20422;-91
2022/04/04 03:14:13;;;;;;;12.80;9.00;;;3.00;99.90;;;;;;6283162;22;20053;-91
2022/04/04 03:16:39;;;;;;;13.15;10.07;;;3.00;99.90;;;;;;6283629;22;20026;-92
2022/04/04 03:19:05;;;;;;;13.52;8.60;;;3.00;99.90;;;;;;6283906;22;20006;-92
2022/04/04 03:21:31;;;;;;;12.48;9.45;;;3.00;99.90;;;;;;6284259;22;20003;-89
2022/04/04 03:23:56;;;;;;;11.85;9.10;;;3.10;99.90;;;;;;6284268;22;19999;-92
2022/04/04 03:26:23;;;;;;;12.05;8.77;;;3.00;99.90;;;;;;6283035;22;20048;-89
2022/04/04 03:28:49;;;;;;;13.85;9.73;;;3.10;99.90;;;;;;6284621;22;20003;-91
2022/04/04 03:31:14;;;;;;;11.02;8.48;;;3.10;99.90;;;;;;6285071;22;19999;-90
2022/04/04 03:33:40;;;;;;;14.45;9.45;;;3.10;99.90;;;;;;6284980;22;19995;-90
2022/04/04 03:36:06;;;;;;;13.40;9.32;;;3.10;99.90;;;;;;6284459;22;20011;-92
2022/04/04 03:38:33;;;;;;;11.75;9.10;;;3.10;99.90;;;;;;6284361;22;20421;-91
2022/04/04 03:40:59;;;;;;;11.15;8.77;;;3.10;99.90;;;;;;6284516;22;20000;-92
2022/04/04 03:43:25;;;;;;;13.18;9.50;;;3.10;99.90;;;;;;6286314;22;20026;-91
2022/04/04 03:45:51;;;;;;;11.80;9.27;;;3.20;99.90;;;;;;6290762;22;20027;-89
2022/04/04 03:48:17;;;;;;;12.30;8.75;;;3.10;99.90;;;;;;6288872;22;20010;-91
2022/04/04 03:50:45;;;;;;;16.25;8.90;;;3.10;99.90;;;;;;6288323;22;20091;-91
2022/04/04 03:53:11;;;;;;;10.93;8.38;;;3.10;99.90;;;;;;6293486;22;19995;-90
2022/04/04 03:55:39;;;;;;;12.80;8.93;;;3.20;99.90;;;;;;6289541;22;20003;-89
2022/04/04 03:58:10;;;;;;;12.15;8.68;;;3.20;99.90;;;;;;6287796;22;19996;-91
2022/04/04 04:00:38;;;;;;;15.95;8.30;;;3.20;99.90;;;;;;6287503;22;20064;-90
2022/04/04 04:03:05;;;;;;;13.70;9.20;;;3.20;99.90;;;;;;6291158;22;20008;-90
2022/04/04 04:05:31;;;;;;;11.85;8.90;;;3.20;99.90;;;;;;6291018;22;20014;-90
2022/04/04 04:07:57;;;;;;;11.82;8.82;;;3.20;99.90;;;;;;6315619;22;20007;-91
2022/04/04 04:10:22;;;;;;;11.60;8.68;;;3.20;99.90;;;;;;6285813;22;19999;-90
2022/04/04 04:12:49;;;;;;;13.75;8.70;;;3.20;99.90;;;;;;6286298;22;19999;-90
2022/04/04 04:15:18;;;;;;;12.60;7.93;;;3.30;99.90;;;;;;6289660;22;20096;-90
2022/04/04 04:17:44;;;;;;;12.43;8.00;;;3.30;99.90;;;;;;6294961;22;19999;-91
2022/04/04 04:20:20;;;;;;;12.02;8.55;;;3.30;99.90;;;;;;6297388;22;20087;-87
2022/04/04 04:23:03;;;;;;;13.65;8.50;;;3.40;99.90;;;;;;6296333;22;20011;-87
2022/04/04 04:25:30;;;;;;;11.90;8.40;;;3.40;99.90;;;;;;6294903;22;19999;-88
2022/04/04 04:27:59;;;;;;;10.55;8.25;;;3.50;99.90;;;;;;6275852;22;20007;-89
2022/04/04 04:30:25;;;;;;;13.27;8.35;;;3.40;99.90;;;;;;6302628;22;20025;-88
2022/04/04 04:32:55;;;;;;;11.30;8.10;;;3.50;99.90;;;;;;6303848;22;20003;-87
2022/04/04 04:35:29;;;;;;;11.32;8.32;;;3.40;99.90;;;;;;6273943;22;20019;-89
2022/04/04 04:38:00;;;;;;;14.07;8.52;;;3.50;99.90;;;;;;6288810;22;20058;-88
2022/04/04 04:40:28;;;;;;;10.45;7.72;;;3.50;99.90;;;;;;6296308;22;19991;-93
2022/04/04 04:42:55;;;;;;;9.80;7.90;;;3.50;99.90;;;;;;6293381;22;20011;-91
2022/04/04 04:45:21;;;;;;;11.10;7.93;;;3.50;99.90;;;;;;6293149;22;20011;-90
2022/04/04 04:47:48;;;;;;;12.13;8.23;;;3.50;99.90;;;;;;6288374;22;20094;-90
2022/04/04 04:50:16;;;;;;;11.55;8.05;;;3.60;99.90;;;;;;6285484;22;20000;-92
2022/04/04 04:52:44;;;;;;;10.35;7.22;;;3.60;99.90;;;;;;6284483;22;20000;-91
2022/04/04 04:55:10;;;;;;;11.20;7.15;;;3.60;99.90;;;;;;6282662;22;20007;-91
2022/04/04 04:57:36;;;;;;;10.60;7.43;;;3.70;99.90;;;;;;6280775;22;20057;-91
2022/04/04 05:00:04;;;;;;;11.32;8.85;;;3.70;99.90;;;;;;6284707;22;20007;-92
2022/04/04 05:02:31;;;;;;;12.07;8.07;;;3.70;99.90;;;;;;6280350;22;20027;-90
2022/04/04 05:04:57;;;;;;;12.00;7.90;;;3.80;99.90;;;;;;6277749;22;20007;-92
2022/04/04 05:07:26;;;;;;;11.75;8.38;;;3.80;99.90;;;;;;6279482;22;20003;-96
2022/04/04 05:09:55;;;;;;;16.38;8.80;;;3.90;99.90;;;;;;6262042;22;20011;-95
2022/04/04 05:12:20;;;;;;;12.63;9.18;;;3.90;99.90;;;;;;6254334;22;20012;-93
2022/04/04 05:14:48;;;;;;;13.88;8.32;;;3.90;99.90;;;;;;6279523;22;20095;-93
2022/04/04 05:17:13;;;;;;;12.25;8.65;;;4.00;99.90;;;;;;6279394;22;20003;-94
2022/04/04 05:19:39;;;;;;;11.98;8.60;;;4.10;99.90;;;;;;6279621;22;19999;-94
2022/04/04 05:22:05;;;;;;;12.20;8.27;;;4.10;99.90;;;;;;6278967;22;20012;-94
2022/04/04 05:24:31;;;;;;;13.10;9.20;;;4.10;99.90;;;;;;6279202;22;20000;-94
2022/04/04 05:26:57;;;;;;;12.27;8.43;;;4.20;99.90;;;;;;6278399;22;20014;-91
2022/04/04 05:29:26;;;;;;;13.10;8.80;;;4.20;99.90;;;;;;6281257;22;20020;-89
2022/04/04 05:31:53;;;;;;;14.18;9.18;;;4.20;99.90;;;;;;6284030;22;20007;-89
2022/04/04 05:34:20;;;;;;;15.00;9.35;;;4.20;99.90;;;;;;6282364;22;20026;-89
2022/04/04 05:36:47;;;;;;;14.05;9.13;;;4.30;99.90;;;;;;6285938;22;20031;-87
2022/04/04 05:39:13;;;;;;;13.93;8.80;;;4.30;99.90;;;;;;6282930;22;20000;-90
2022/04/04 05:41:40;;;;;;;13.32;8.57;;;4.40;99.90;;;;;;6287480;22;20011;-90
2022/04/04 05:44:07;;;;;;;14.77;9.43;;;4.40;99.90;;;;;;6284840;22;20022;-87
2022/04/04 05:46:34;;;;;;;16.02;9.15;;;4.40;99.90;;;;;;6282094;22;20062;-87
2022/04/04 05:49:00;;;;;;;12.05;8.85;;;4.40;99.90;;;;;;6279854;22;20563;-90
2022/04/04 05:51:28;;;;;;;14.57;9.40;;;4.50;99.90;;;;;;6279073;22;20334;-89
2022/04/04 05:53:55;;;;;;;13.75;8.38;;;4.50;99.90;;;;;;6280103;22;20054;-89
2022/04/04 05:56:21;;;;;;;13.98;9.05;;;4.60;99.90;;;;;;6278678;22;20422;-90
2022/04/04 05:58:50;;;;;;;13.55;8.32;;;4.60;99.90;;;;;;6278150;22;20010;-89
2022/04/04 06:01:16;;;;;;;10.63;8.23;;;4.80;99.90;;;;;;6277593;22;20004;-89
2022/04/04 06:03:42;;;;;;;11.95;8.25;;;4.70;99.90;;;;;;6280103;22;20452;-90
2022/04/04 06:06:08;;;;;;;12.13;7.93;;;4.80;99.90;;;;;;6277847;22;20083;-90
2022/04/04 06:08:34;;;;;;;11.05;8.18;;;4.80;99.90;;;;;;6280688;22;20070;-89
2022/04/04 06:11:00;;;;;;;14.75;8.77;;;4.80;99.90;;;;;;6278319;22;20335;-89
2022/04/04 06:13:25;;;;;;;10.57;8.38;;;4.80;99.90;;;;;;6277461;22;20418;-88
2022/04/04 06:15:51;;;;;;;11.80;8.05;;;4.80;99.90;;;;;;6279724;22;20436;-89
2022/04/04 06:18:17;;;;;;;14.18;9.35;;;4.90;99.90;;;;;;6278573;22;20384;-90
2022/04/04 06:20:43;;;;;;;12.38;9.10;;;4.90;99.90;;;;;;6279128;22;20035;-91
2022/04/04 06:23:09;;;;;;;13.93;8.27;;;5.00;99.90;;;;;;6279000;22;20012;-88
2022/04/04 06:25:35;;;;;;;16.20;8.40;;;5.00;99.90;;;;;;6281080;22;20023;-89
2022/04/04 06:28:01;;;;;;;11.80;8.55;;;5.10;99.90;;;;;;6278449;22;20006;-90
2022/04/04 06:30:27;;;;;;;15.50;9.40;;;5.20;99.90;;;;;;6279127;22;19999;-90
2022/04/04 06:32:53;;;;;;;12.20;8.73;;;5.30;99.90;;;;;;6282223;22;20330;-88
2022/04/04 06:35:30;;;;;;;13.00;8.27;;;5.40;99.90;;;;;;6284501;22;20083;-87
2022/04/04 06:37:56;;;;;;;12.60;7.63;;;5.40;99.90;;;;;;6285578;22;19999;-90
2022/04/04 06:40:23;;;;;;;15.60;8.63;;;5.50;99.90;;;;;;6286413;22;19996;-85
2022/04/04 06:42:49;;;;;;;14.18;8.25;;;5.60;99.90;;;;;;6291216;22;20015;-88
2022/04/04 06:45:17;;;;;;;13.85;8.15;;;5.60;99.90;;;;;;6285104;22;20034;-88
2022/04/04 06:47:44;;;;;;;12.30;7.35;;;5.70;99.90;;;;;;6290862;22;20039;-87
2022/04/04 06:50:13;;;;;;;11.85;8.07;;;5.70;99.90;;;;;;6287942;22;20062;-87
2022/04/04 06:52:42;;;;;;;14.10;8.85;;;5.80;99.90;;;;;;6277593;22;19995;-87
2022/04/04 06:55:08;;;;;;;11.52;7.68;;;5.80;99.90;;;;;;6278025;22;20000;-87
2022/04/04 06:57:34;;;;;;;9.88;7.13;;;5.80;99.90;;;;;;6278225;22;20065;-88
2022/04/04 06:59:59;;;;;;;12.85;7.57;;;5.90;99.90;;;;;;6276521;22;20082;-90
2022/04/04 07:02:25;;;;;;;10.15;7.38;;;5.90;99.90;;;;;;6277521;22;20019;-88
2022/04/04 07:04:51;;;;;;;11.32;7.60;;;5.90;99.90;;;;;;6277293;22;20004;-88
2022/04/04 07:07:21;;;;;;;12.27;7.20;;;5.90;99.90;;;;;;6277309;22;20004;-90
2022/04/04 07:09:47;;;;;;;11.88;7.10;;;6.00;99.90;;;;;;6277516;22;19996;-90
2022/04/04 07:12:12;;;;;;;10.85;6.63;;;6.00;99.90;;;;;;6276199;22;20052;-87
2022/04/04 07:14:38;;;;;;;12.32;7.45;;;6.10;99.90;;;;;;6276507;22;20008;-90
2022/04/04 07:17:04;;;;;;;11.75;6.78;;;6.10;99.90;;;;;;6276972;22;20035;-90
2022/04/04 07:19:33;;;;;;;10.43;6.55;;;6.30;99.90;;;;;;6277170;22;20027;-88
2022/04/04 07:22:02;;;;;;;9.82;6.57;;;6.30;99.90;;;;;;6280519;22;20016;-89
2022/04/04 07:24:28;;;;;;;9.80;5.82;;;6.40;99.90;;;;;;6294772;22;19984;-89
2022/04/04 07:26:54;;;;;;;11.20;6.60;;;6.40;99.90;;;;;;6302144;22;19988;-88
2022/04/04 07:29:20;;;;;;;9.75;6.82;;;6.50;99.90;;;;;;6301581;22;20011;-88
2022/04/04 07:31:45;;;;;;;10.43;6.53;;;6.50;99.90;;;;;;6288580;22;20007;-86
2022/04/04 07:34:11;;;;;;;9.15;6.40;;;6.60;99.90;;;;;;6289405;22;20047;-87
2022/04/04 07:36:40;;;;;;;13.88;7.32;;;6.60;99.90;;;;;;6291611;22;20000;-86
2022/04/04 07:39:06;;;;;;;9.68;6.38;;;6.70;99.90;;;;;;6279226;22;20008;-88
2022/04/04 07:41:36;;;;;;;11.45;7.13;;;6.70;99.90;;;;;;6281554;22;20082;-86
2022/04/04 07:44:04;;;;;;;10.88;7.18;;;6.60;99.90;;;;;;6283634;22;20004;-88
2022/04/04 07:46:31;;;;;;;10.38;7.70;;;6.60;99.90;;;;;;6282133;22;20022;-91
2022/04/04 07:48:58;;;;;;;10.80;7.25;;;6.60;99.90;;;;;;6280390;22;20003;-89
2022/04/04 07:51:24;;;;;;;12.88;8.30;;;6.50;99.90;;;;;;6278201;22;20003;-88
2022/04/04 07:53:50;;;;;;;11.77;8.93;;;6.50;99.90;;;;;;6278596;22;20003;-89
2022/04/04 07:56:15;;;;;;;17.63;9.15;;;6.30;99.90;;;;;;6320434;22;20383;-88
2022/04/04 07:58:50;;;;;;;12.25;9.48;;;6.10;99.90;;;;;;6317944;22;20005;-87
2022/04/04 08:01:16;;;;;;;12.80;9.23;;;6.00;99.90;;;;;;6254262;22;20107;-91
2022/04/04 08:03:42;;;;;;;12.23;8.90;;;6.00;99.90;;;;;;6247619;23;20015;-88
2022/04/04 08:06:08;;;;;;;13.80;9.30;;;5.90;99.90;;;;;;6248665;23;20003;-90
2022/04/04 08:08:33;;;;;;;12.13;9.32;;;5.80;99.90;;;;;;6222360;23;20031;-89
2022/04/04 08:11:00;;;;;;;14.88;10.90;;;5.70;99.90;;;;;;6257861;22;20012;-89
2022/04/04 08:13:25;;;;;;;15.98;11.80;;;5.60;99.90;;;;;;6316404;22;20098;-88
2022/04/04 08:15:52;;;;;;;12.18;10.50;;;5.50;99.90;;;;;;6317793;22;20006;-90
2022/04/04 08:18:18;;;;;;;15.02;10.18;;;5.40;99.90;;;;;;6288653;22;20082;-89
2022/04/04 08:20:44;;;;;;;14.85;11.07;;;5.40;99.90;;;;;;6313714;22;20048;-88
2022/04/04 08:23:09;;;;;;;14.88;10.75;;;5.40;99.90;;;;;;6314889;22;20011;-87
2022/04/04 08:25:38;;;;;;;13.65;10.35;;;5.50;99.90;;;;;;6315964;22;20460;-88
2022/04/04 08:28:04;;;;;;;13.68;10.00;;;5.50;99.90;;;;;;6314405;22;19999;-89
2022/04/04 08:30:29;;;;;;;16.25;11.45;;;5.50;99.90;;;;;;6320205;22;19998;-89
2022/04/04 08:32:55;;;;;;;21.65;11.23;;;5.60;99.90;;;;;;6317310;22;20006;-88
2022/04/04 08:35:27;;;;;;;17.23;11.15;;;5.60;99.90;;;;;;6317866;22;20068;-87
2022/04/04 08:37:58;;;;;;;16.90;10.25;;;5.70;99.90;;;;;;6323551;22;20038;-86
2022/04/04 08:40:29;;;;;;;16.10;10.70;;;5.80;99.90;;;;;;6328521;22;20010;-90
2022/04/04 08:42:56;;;;;;;13.55;10.15;;;5.80;99.90;;;;;;6347320;22;20090;-87
2022/04/04 08:45:22;;;;;;;14.18;10.45;;;5.90;99.90;;;;;;6348609;22;20005;-88
2022/04/04 08:47:48;;;;;;;14.60;10.98;;;6.10;99.90;;;;;;6318757;22;20042;-89
2022/04/04 08:50:15;;;;;;;14.57;10.57;;;6.10;99.90;;;;;;6317359;22;20077;-89
2022/04/04 08:52:43;;;;;;;17.42;11.48;;;6.30;99.90;;;;;;6317835;22;20007;-88
2022/04/04 08:55:09;;;;;;;13.60;10.60;;;6.30;99.90;;;;;;6344451;22;20074;-89
2022/04/04 08:57:34;;;;;;;12.43;10.30;;;6.40;99.90;;;;;;6316980;22;20015;-88
2022/04/04 09:00:00;;;;;;;17.92;11.52;;;6.50;99.90;;;;;;6316266;22;20002;-88
2022/04/04 09:02:26;;;;;;;13.02;10.45;;;6.50;99.90;;;;;;6315402;22;20345;-88
2022/04/04 09:04:52;;;;;;;16.60;10.88;;;6.50;99.90;;;;;;6315639;22;19998;-89
2022/04/04 09:07:19;;;;;;;14.38;11.05;;;6.50;99.90;;;;;;6344703;22;20778;-89
2022/04/04 09:09:50;;;;;;;18.00;11.38;;;6.50;99.90;;;;;;6343808;22;20002;-88
2022/04/04 09:12:19;;;;;;;17.27;11.27;;;6.50;99.90;;;;;;6342516;22;20425;-87
2022/04/04 09:14:46;;;;;;;15.27;12.65;;;6.30;99.90;;;;;;6343842;22;20022;-88
2022/04/04 09:17:14;;;;;;;15.82;11.15;;;6.00;99.90;;;;;;6315517;22;20003;-89
2022/04/04 09:19:40;;;;;;;16.42;11.65;;;5.90;99.90;;;;;;6342553;22;19995;-88
2022/04/04 09:22:08;;;;;;;15.63;11.77;;;5.70;99.90;;;;;;6342402;22;20011;-87
2022/04/04 09:24:51;;;;;;;16.67;13.45;;;5.70;99.90;;;;;;6343041;22;20025;-89
2022/04/04 09:27:21;;;;;;;19.13;13.35;;;5.60;99.90;;;;;;6346261;22;19999;-86
2022/04/04 09:29:49;;;;;;;20.75;13.82;;;5.50;99.90;;;;;;6349037;22;20009;-86
2022/04/04 09:32:15;;;;;;;19.95;12.93;;;5.50;99.90;;;;;;6350082;22;19999;-88
2022/04/04 09:35:18;;;;;;;20.02;14.48;;;5.40;99.90;;;;;;6353727;22;20021;-89
2022/04/04 09:37:49;;;;;;;21.75;15.90;;;5.40;99.90;;;;;;6327726;22;20006;-86
2022/04/04 09:40:24;;;;;;;19.17;14.57;;;5.40;99.90;;;;;;6331220;22;19994;-85
2022/04/04 09:42:53;;;;;;;19.42;14.18;;;5.40;99.90;;;;;;6340833;22;20015;-86
2022/04/04 09:45:28;;;;;;;20.17;15.15;;;5.30;99.90;;;;;;6358924;22;20074;-85
2022/04/04 09:48:09;;;;;;;19.83;15.50;;;5.30;99.90;;;;;;6338798;22;19998;-89
2022/04/04 09:50:45;;;;;;;22.35;15.48;;;5.20;99.90;;;;;;6367505;22;19991;-91
2022/04/04 09:53:32;;;;;;;18.65;15.07;;;5.20;99.90;;;;;;6367230;22;19986;-86
2022/04/04 09:56:00;;;;;;;19.75;15.32;;;5.20;99.90;;;;;;6366956;22;19983;-94
2022/04/04 09:58:31;;;;;;;24.02;17.60;;;5.20;99.90;;;;;;6338396;22;20053;-88
2022/04/04 10:01:02;;;;;;;28.42;15.98;;;5.20;99.90;;;;;;6362479;22;19993;-89
2022/04/04 10:03:30;;;;;;;24.33;16.35;;;5.20;99.90;;;;;;6367022;22;20081;-86
2022/04/04 10:06:05;;;;;;;19.60;15.88;;;5.20;99.90;;;;;;6363753;22;19999;-88
2022/04/04 10:09:12;;;;;;;21.17;16.77;;;5.30;99.90;;;;;;6332628;22;20006;-84
2022/04/04 10:11:43;;;;;;;18.63;16.38;;;5.20;99.90;;;;;;6330505;22;20003;-89
2022/04/04 10:14:20;;;;;;;18.65;14.68;;;5.20;99.90;;;;;;6349585;22;20007;-85
2022/04/04 10:16:50;;;;;;;19.77;14.32;;;5.20;99.90;;;;;;6324240;22;20010;-94
2022/04/04 10:19:16;;;;;;;18.80;14.57;;;5.30;99.90;;;;;;6349030;22;20002;-95
2022/04/04 10:21:49;;;;;;;22.15;16.27;;;5.30;99.90;;;;;;6295048;22;20014;-94
2022/04/04 10:24:15;;;;;;;19.63;14.33;;;5.30;99.90;;;;;;6314067;22;20002;-90
2022/04/04 10:26:42;;;;;;;15.48;13.25;;;5.30;99.90;;;;;;6342639;22;20233;-93
2022/04/04 10:29:14;;;;;;;18.63;13.90;;;5.30;99.90;;;;;;6312722;22;20034;-90
2022/04/04 10:31:52;;;;;;;19.17;13.70;;;5.30;99.90;;;;;;6312510;22;20027;-92
2022/04/04 10:34:23;;;;;;;21.25;13.75;;;5.30;99.90;;;;;;6312919;22;19998;-92
2022/04/04 10:37:06;;;;;;;16.05;14.10;;;5.30;99.90;;;;;;6313039;22;20026;-93
2022/04/04 10:39:33;;;;;;;19.88;15.13;;;5.30;99.90;;;;;;6313318;22;20015;-91
2022/04/04 10:41:58;;;;;;;16.83;14.85;;;5.40;99.90;;;;;;6313983;22;20018;-86
2022/04/04 10:44:50;;;;;;;18.90;13.93;;;5.40;99.90;;;;;;6341406;22;19998;-87
2022/04/04 10:47:24;;;;;;;18.77;14.13;;;5.40;99.90;;;;;;6342196;22;20077;-88
2022/04/04 10:49:50;;;;;;;;;;;5.40;99.90;;;;;;6312229;22;20007;-89
2022/04/04 10:52:22;;;;;;;17.27;14.80;;;5.40;99.90;;;;;;6338166;22;19930;-86
2022/04/04 10:54:48;;;;;;;20.90;14.65;;;5.40;99.90;;;;;;6341386;22;20389;-87
2022/04/04 10:57:17;;;;;;;17.15;13.60;;;5.40;99.90;;;;;;6342065;22;20418;-87
2022/04/04 10:59:48;;;;;;;14.20;11.75;;;5.40;99.90;;;;;;6313761;22;20444;-88
2022/04/04 11:02:18;;;;;;;15.35;12.68;;;5.50;99.90;;;;;;6313459;22;20460;-86
2022/04/04 11:07:41;;;;;;;17.70;12.10;;;5.50;99.90;;;;;;6341382;22;20021;-87
2022/04/04 11:10:09;;;;;;;16.52;13.40;;;5.50;99.90;;;;;;6341359;22;19995;-86
2022/04/04 11:13:00;;;;;;;16.00;12.55;;;5.50;99.90;;;;;;6340770;22;20002;-87
2022/04/04 11:15:45;;;;;;;18.80;12.38;;;5.50;99.90;;;;;;6341417;22;20018;-88
2022/04/04 11:18:14;;;;;;;16.65;12.73;;;5.50;99.90;;;;;;6340755;22;20078;-87
2022/04/04 11:21:00;;;;;;;15.35;12.20;;;5.50;99.90;;;;;;6313346;22;20417;-86
2022/04/04 11:23:34;;;;;;;13.35;11.68;;;5.50;99.90;;;;;;6313413;22;20010;-88
2022/04/04 11:26:01;;;;;;;16.85;11.77;;;5.60;99.90;;;;;;6312473;22;20006;-86
2022/04/04 11:28:31;;;;;;;12.32;10.38;;;5.60;99.90;;;;;;6340044;22;20003;-86
2022/04/04 11:31:06;;;;;;;13.45;11.15;;;5.60;99.90;;;;;;6339682;22;19991;-86
2022/04/04 11:33:34;;;;;;;17.23;11.10;;;5.60;99.90;;;;;;6339051;22;20048;-87
2022/04/04 11:36:03;;;;;;;13.95;11.02;;;5.70;99.90;;;;;;6340847;22;20590;-87
2022/04/04 11:38:37;;;;;;;15.57;12.20;;;5.70;99.90;;;;;;6270169;22;20161;-87
2022/04/04 11:41:09;;;;;;;13.50;11.30;;;5.70;99.90;;;;;;6278223;22;20084;-89
2022/04/04 11:43:40;;;;;;;13.43;11.23;;;5.70;99.90;;;;;;6277139;22;20003;-87
2022/04/04 11:46:14;;;;;;;13.73;11.85;;;5.70;99.90;;;;;;6278234;22;20103;-86
2022/04/04 11:48:57;;;;;;;15.93;13.00;;;5.70;99.90;;;;;;6278333;22;20003;-87
2022/04/04 11:51:34;;;;;;;16.85;13.25;;;5.80;99.90;;;;;;6277453;22;20004;-89
2022/04/04 11:54:01;;;;;;;16.08;13.50;;;5.90;99.90;;;;;;6277143;22;20003;-87
2022/04/04 11:56:27;;;;;;;17.90;14.73;;;5.90;99.90;;;;;;6280226;22;20000;-85
2022/04/04 11:58:55;;;;;;;18.50;15.45;;;5.80;99.90;;;;;;6279577;22;20335;-88
2022/04/04 12:01:27;;;;;;;21.08;16.98;;;5.90;99.90;;;;;;6276381;22;19996;-87
2022/04/04 12:03:53;;;;;;;22.20;17.15;;;6.00;99.90;;;;;;6276606;22;19999;-88
2022/04/04 12:06:20;;;;;;;19.98;17.00;;;5.90;99.90;;;;;;6278204;22;20007;-85
2022/04/04 12:08:46;;;;;;;18.92;16.08;;;5.90;99.90;;;;;;6278719;22;20015;-87
2022/04/04 12:11:12;;;;;;;21.98;16.27;;;5.90;99.90;;;;;;6277971;22;20004;-86
2022/04/04 12:13:53;;;;;;;22.65;17.60;;;5.90;99.90;;;;;;6279594;22;20007;-86
2022/04/04 12:16:19;;;;;;;19.33;16.13;;;5.90;99.90;;;;;;6277242;22;19996;-88
2022/04/04 12:18:57;;;;;;;18.33;15.90;;;6.00;99.90;;;;;;6278105;22;20014;-87
2022/04/04 12:21:23;;;;;;;19.02;15.48;;;6.00;99.90;;;;;;6278227;22;20422;-87
2022/04/04 12:26:34;;;;;;;17.17;14.73;;;6.00;99.90;;;;;;6279518;22;20070;-88
2022/04/04 12:29:00;;;;;;;15.45;12.85;;;6.10;99.90;;;;;;6278745;22;20422;-88
2022/04/04 12:31:28;;;;;;;14.70;12.70;;;6.10;99.90;;;;;;6284830;22;20063;-89
2022/04/04 12:34:14;;;;;;;16.33;14.18;;;6.10;99.90;;;;;;6279782;22;19999;-89
2022/04/04 12:36:42;;;;;;;14.90;12.95;;;6.20;99.90;;;;;;6283821;22;20090;-88
2022/04/04 12:39:18;;;;;;;18.70;13.93;;;6.20;99.90;;;;;;6291347;22;20509;-87
2022/04/04 12:41:53;;;;;;;18.17;15.40;;;6.20;99.90;;;;;;6283898;22;20485;-88
2022/04/04 12:44:28;;;;;;;18.38;15.00;;;6.20;99.90;;;;;;6281816;22;20469;-91
2022/04/04 12:47:20;;;;;;;19.63;15.77;;;6.20;99.90;;;;;;6277553;22;20445;-89
2022/04/04 12:49:45;;;;;;;17.83;14.85;;;6.20;99.90;;;;;;6279947;22;20003;-90
2022/04/04 12:52:16;;;;;;;17.15;15.35;;;6.20;99.90;;;;;;6283099;22;20006;-86
2022/04/04 12:54:41;;;;;;;19.42;16.67;;;6.20;99.90;;;;;;6282978;22;19996;-91
2022/04/04 12:57:11;;;;;;;21.35;17.33;;;6.20;99.90;;;;;;6281093;22;20035;-89
2022/04/04 12:59:51;;;;;;;19.05;15.98;;;6.30;99.90;;;;;;6274912;22;20011;-90